AEN953 LLBG-EDDH
Flight info
| Callsign | AEN953 |
|---|---|
| Flight time | N/A |
| Altitude | 34000 |
| Route | SUVAS N128 OTHON UN128 RDS UL609 MES UG18 GIKAS UN133 PEREN UL863 EVIVI L863 OKANA DCT PARAK DCT PATAK DCT LALES DCT HDO M748 RARUP RARUP6A |
| Aircraft | A320/M-SDE3FGHIRWY/LB1 |
Departure
| Time | 2026-05-01 10:23 |
|---|---|
| Airport | Ben Gurion International Airport (LLBG) |
Arrival
| Time | N/A |
|---|---|
| Airport | Hamburg Helmut Schmidt Airport (EDDH) |
| Time | Latitude | Longitude | Altitude | Speed | Heading |
|---|---|---|---|---|---|
| 2026-05-01 09:50 | 32.00510 | 34.87473 | 116 ft | 0 kts | 275° |
| 2026-05-01 10:12 | 32.00499 | 34.87519 | 119 ft | 4 kts | 301° |
| 2026-05-01 10:13 | 32.00489 | 34.87545 | 119 ft | 3 kts | 255° |
| 2026-05-01 10:13 | 32.00496 | 34.87570 | 116 ft | 4 kts | 239° |
| 2026-05-01 10:13 | 32.00512 | 34.87595 | 116 ft | 4 kts | 228° |
| 2026-05-01 10:14 | 32.00537 | 34.87647 | 116 ft | 4 kts | 276° |
| 2026-05-01 10:14 | 32.00527 | 34.87675 | 119 ft | 4 kts | 319° |
| 2026-05-01 10:14 | 32.00505 | 34.87691 | 118 ft | 4 kts | 341° |
| 2026-05-01 10:14 | 32.00492 | 34.87696 | 117 ft | 0 kts | 347° |
| 2026-05-01 10:16 | 32.00492 | 34.87695 | 117 ft | 1 kts | 347° |
| 2026-05-01 10:16 | 32.00561 | 34.87709 | 118 ft | 9 kts | 59° |
| 2026-05-01 10:17 | 32.00536 | 34.87794 | 118 ft | 13 kts | 122° |
| 2026-05-01 10:17 | 32.00440 | 34.87980 | 118 ft | 12 kts | 121° |
| 2026-05-01 10:17 | 32.00394 | 34.88068 | 117 ft | 14 kts | 121° |
| 2026-05-01 10:18 | 32.00276 | 34.88294 | 118 ft | 17 kts | 122° |
| 2026-05-01 10:18 | 32.00218 | 34.88406 | 118 ft | 15 kts | 121° |
| 2026-05-01 10:18 | 32.00166 | 34.88505 | 118 ft | 13 kts | 122° |
| 2026-05-01 10:19 | 32.00121 | 34.88590 | 116 ft | 11 kts | 121° |
| 2026-05-01 10:19 | 32.00083 | 34.88665 | 118 ft | 10 kts | 121° |
| 2026-05-01 10:19 | 32.00044 | 34.88741 | 117 ft | 12 kts | 122° |
| 2026-05-01 10:20 | 31.99945 | 34.88943 | 116 ft | 17 kts | 104° |
| 2026-05-01 10:20 | 31.99951 | 34.89070 | 120 ft | 15 kts | 98° |
| 2026-05-01 10:20 | 31.99891 | 34.89184 | 119 ft | 18 kts | 126° |
| 2026-05-01 10:20 | 31.99818 | 34.89309 | 119 ft | 18 kts | 123° |
| 2026-05-01 10:21 | 31.99803 | 34.89408 | 120 ft | 12 kts | 54° |
| 2026-05-01 10:21 | 31.99932 | 34.89464 | 120 ft | 10 kts | 17° |
| 2026-05-01 10:21 | 31.99992 | 34.89440 | 118 ft | 10 kts | 302° |
| 2026-05-01 10:22 | 32.00085 | 34.89261 | 117 ft | 24 kts | 301° |
| 2026-05-01 10:22 | 32.00712 | 34.88043 | 117 ft | 142 kts | 301° |
| 2026-05-01 10:23 | 32.01291 | 34.86928 | 328 ft | 166 kts | 301° |
| 2026-05-01 10:23 | 32.01448 | 34.84304 | 1515 ft | 177 kts | 262° |
| 2026-05-01 10:23 | 32.01220 | 34.82792 | 1821 ft | 198 kts | 263° |
| 2026-05-01 10:24 | 32.00799 | 34.79415 | 2895 ft | 215 kts | 262° |
| 2026-05-01 10:24 | 32.00390 | 34.75868 | 4135 ft | 221 kts | 262° |
| 2026-05-01 10:25 | 32.00335 | 34.72228 | 5563 ft | 230 kts | 283° |
| 2026-05-01 10:25 | 32.01341 | 34.68416 | 6599 ft | 250 kts | 286° |
| 2026-05-01 10:26 | 32.01876 | 34.66460 | 7263 ft | 252 kts | 286° |
| 2026-05-01 10:26 | 32.02423 | 34.64447 | 7703 ft | 267 kts | 285° |
| 2026-05-01 10:26 | 32.02867 | 34.59987 | 8013 ft | 277 kts | 272° |
| 2026-05-01 10:27 | 32.03094 | 34.55464 | 8020 ft | 276 kts | 272° |
| 2026-05-01 10:27 | 32.03328 | 34.50935 | 8118 ft | 280 kts | 272° |
| 2026-05-01 10:28 | 32.03450 | 34.48642 | 8894 ft | 281 kts | 272° |
| 2026-05-01 10:28 | 32.03696 | 34.44006 | 10281 ft | 291 kts | 272° |
| 2026-05-01 10:28 | 32.03832 | 34.41534 | 10437 ft | 314 kts | 273° |
| 2026-05-01 10:29 | 32.04147 | 34.36061 | 10869 ft | 350 kts | 273° |
| 2026-05-01 10:29 | 32.04313 | 34.33182 | 11441 ft | 354 kts | 273° |
| 2026-05-01 10:30 | 32.04648 | 34.27340 | 12719 ft | 360 kts | 273° |
| 2026-05-01 10:30 | 32.05412 | 34.22466 | 13766 ft | 366 kts | 289° |
| 2026-05-01 10:31 | 32.07862 | 34.17164 | 14888 ft | 371 kts | 300° |
| 2026-05-01 10:31 | 32.10539 | 34.11924 | 16003 ft | 375 kts | 299° |
| 2026-05-01 10:32 | 32.13231 | 34.06621 | 17084 ft | 379 kts | 299° |
| 2026-05-01 10:32 | 32.14585 | 34.03944 | 17618 ft | 381 kts | 299° |
| 2026-05-01 10:32 | 32.17319 | 33.98549 | 18592 ft | 385 kts | 300° |
| 2026-05-01 10:33 | 32.20362 | 33.93311 | 19509 ft | 389 kts | 304° |